sensor_id;sensor_type;location;lat;lon;timestamp;temperature;humidity
8340;DHT22;4207;49.314;7.162;2023-05-10T00:00:05;12.60;99.90
8340;DHT22;4207;49.314;7.162;2023-05-10T00:02:40;12.60;99.90
8340;DHT22;4207;49.314;7.162;2023-05-10T00:05:08;12.60;99.90
8340;DHT22;4207;49.314;7.162;2023-05-10T00:07:39;12.60;99.90
8340;DHT22;4207;49.314;7.162;2023-05-10T00:10:07;12.70;99.90
8340;DHT22;4207;49.314;7.162;2023-05-10T00:12:35;12.70;99.90
8340;DHT22;4207;49.314;7.162;2023-05-10T00:15:04;12.70;99.90
8340;DHT22;4207;49.314;7.162;2023-05-10T00:17:33;12.80;99.90
8340;DHT22;4207;49.314;7.162;2023-05-10T00:20:03;12.70;99.90
8340;DHT22;4207;49.314;7.162;2023-05-10T00:22:31;12.80;99.90
8340;DHT22;4207;49.314;7.162;2023-05-10T00:25:00;12.80;99.90
8340;DHT22;4207;49.314;7.162;2023-05-10T00:27:28;12.80;99.90
8340;DHT22;4207;49.314;7.162;2023-05-10T00:29:56;12.80;99.90
8340;DHT22;4207;49.314;7.162;2023-05-10T00:32:24;12.80;99.90
8340;DHT22;4207;49.314;7.162;2023-05-10T00:34:52;12.80;99.90
8340;DHT22;4207;49.314;7.162;2023-05-10T00:37:21;12.70;99.90
8340;DHT22;4207;49.314;7.162;2023-05-10T00:39:50;12.70;99.90
8340;DHT22;4207;49.314;7.162;2023-05-10T00:42:18;12.70;99.90
8340;DHT22;4207;49.314;7.162;2023-05-10T00:44:49;12.60;99.90
8340;DHT22;4207;49.314;7.162;2023-05-10T00:47:18;12.60;99.90
8340;DHT22;4207;49.314;7.162;2023-05-10T00:49:46;12.50;99.90
8340;DHT22;4207;49.314;7.162;2023-05-10T00:52:14;12.50;99.90
8340;DHT22;4207;49.314;7.162;2023-05-10T00:54:47;12.40;99.90
8340;DHT22;4207;49.314;7.162;2023-05-10T00:57:16;12.30;99.90
8340;DHT22;4207;49.314;7.162;2023-05-10T00:59:44;12.30;99.90
8340;DHT22;4207;49.314;7.162;2023-05-10T01:02:12;12.20;99.90
8340;DHT22;4207;49.314;7.162;2023-05-10T01:04:41;12.20;99.90
8340;DHT22;4207;49.314;7.162;2023-05-10T01:07:09;12.10;99.90
8340;DHT22;4207;49.314;7.162;2023-05-10T01:09:37;12.10;99.90
8340;DHT22;4207;49.314;7.162;2023-05-10T01:12:08;12.10;99.90
8340;DHT22;4207;49.314;7.162;2023-05-10T01:14:39;12.10;99.90
8340;DHT22;4207;49.314;7.162;2023-05-10T01:17:07;12.10;99.90
8340;DHT22;4207;49.314;7.162;2023-05-10T01:19:37;12.10;99.90
8340;DHT22;4207;49.314;7.162;2023-05-10T01:22:15;12.10;99.90
8340;DHT22;4207;49.314;7.162;2023-05-10T01:25:11;12.20;99.90
8340;DHT22;4207;49.314;7.162;2023-05-10T01:28:28;12.20;99.90
8340;DHT22;4207;49.314;7.162;2023-05-10T01:31:28;12.30;99.90
8340;DHT22;4207;49.314;7.162;2023-05-10T01:34:02;12.30;99.90
8340;DHT22;4207;49.314;7.162;2023-05-10T01:36:40;12.30;99.90
8340;DHT22;4207;49.314;7.162;2023-05-10T01:39:14;12.40;99.90
8340;DHT22;4207;49.314;7.162;2023-05-10T01:41:49;12.40;99.90
8340;DHT22;4207;49.314;7.162;2023-05-10T01:44:26;12.40;99.90
8340;DHT22;4207;49.314;7.162;2023-05-10T01:47:03;12.40;99.90
8340;DHT22;4207;49.314;7.162;2023-05-10T01:49:39;12.40;99.90
8340;DHT22;4207;49.314;7.162;2023-05-10T01:52:10;12.40;99.90
8340;DHT22;4207;49.314;7.162;2023-05-10T01:54:44;12.30;99.90
8340;DHT22;4207;49.314;7.162;2023-05-10T01:57:15;12.30;99.90
8340;DHT22;4207;49.314;7.162;2023-05-10T01:59:45;12.40;99.90
8340;DHT22;4207;49.314;7.162;2023-05-10T02:02:20;12.40;99.90
8340;DHT22;4207;49.314;7.162;2023-05-10T02:04:50;12.40;99.90
8340;DHT22;4207;49.314;7.162;2023-05-10T02:07:20;12.40;99.90
8340;DHT22;4207;49.314;7.162;2023-05-10T02:09:49;12.40;99.90
8340;DHT22;4207;49.314;7.162;2023-05-10T02:12:20;12.30;99.90
8340;DHT22;4207;49.314;7.162;2023-05-10T02:14:51;12.30;99.90
8340;DHT22;4207;49.314;7.162;2023-05-10T02:17:21;12.30;99.90
8340;DHT22;4207;49.314;7.162;2023-05-10T02:19:53;12.20;99.90
8340;DHT22;4207;49.314;7.162;2023-05-10T02:22:23;12.20;99.90
8340;DHT22;4207;49.314;7.162;2023-05-10T02:24:52;12.20;99.90
8340;DHT22;4207;49.314;7.162;2023-05-10T02:27:23;12.30;99.90
8340;DHT22;4207;49.314;7.162;2023-05-10T02:29:51;12.30;99.90
8340;DHT22;4207;49.314;7.162;2023-05-10T02:32:21;12.40;99.90
8340;DHT22;4207;49.314;7.162;2023-05-10T02:34:52;12.40;99.90
8340;DHT22;4207;49.314;7.162;2023-05-10T02:37:21;12.40;99.90
8340;DHT22;4207;49.314;7.162;2023-05-10T02:39:50;12.30;99.90
8340;DHT22;4207;49.314;7.162;2023-05-10T02:42:23;12.40;99.90
8340;DHT22;4207;49.314;7.162;2023-05-10T02:44:54;12.30;99.90
8340;DHT22;4207;49.314;7.162;2023-05-10T02:47:22;12.40;99.90
8340;DHT22;4207;49.314;7.162;2023-05-10T02:49:51;12.40;99.90
8340;DHT22;4207;49.314;7.162;2023-05-10T02:52:23;12.40;99.90
8340;DHT22;4207;49.314;7.162;2023-05-10T02:54:55;12.40;99.90
8340;DHT22;4207;49.314;7.162;2023-05-10T02:57:28;12.40;99.90
8340;DHT22;4207;49.314;7.162;2023-05-10T02:59:57;12.50;99.90
8340;DHT22;4207;49.314;7.162;2023-05-10T03:02:25;12.40;99.90
8340;DHT22;4207;49.314;7.162;2023-05-10T03:04:54;12.50;99.90
8340;DHT22;4207;49.314;7.162;2023-05-10T03:07:23;12.50;99.90
8340;DHT22;4207;49.314;7.162;2023-05-10T03:09:53;12.50;99.90
8340;DHT22;4207;49.314;7.162;2023-05-10T03:12:31;12.50;99.90
8340;DHT22;4207;49.314;7.162;2023-05-10T03:15:05;12.50;99.90
8340;DHT22;4207;49.314;7.162;2023-05-10T03:17:42;12.50;99.90
8340;DHT22;4207;49.314;7.162;2023-05-10T03:20:22;12.50;99.90
8340;DHT22;4207;49.314;7.162;2023-05-10T03:22:55;12.50;99.90
8340;DHT22;4207;49.314;7.162;2023-05-10T03:25:24;12.50;99.90
8340;DHT22;4207;49.314;7.162;2023-05-10T03:27:54;12.50;99.90
8340;DHT22;4207;49.314;7.162;2023-05-10T03:30:22;12.50;99.90
8340;DHT22;4207;49.314;7.162;2023-05-10T03:32:51;12.50;99.90
8340;DHT22;4207;49.314;7.162;2023-05-10T03:35:21;12.40;99.90
8340;DHT22;4207;49.314;7.162;2023-05-10T03:37:49;12.40;99.90
8340;DHT22;4207;49.314;7.162;2023-05-10T03:40:17;12.40;99.90
8340;DHT22;4207;49.314;7.162;2023-05-10T03:42:46;12.40;99.90
8340;DHT22;4207;49.314;7.162;2023-05-10T03:45:13;12.40;99.90
8340;DHT22;4207;49.314;7.162;2023-05-10T03:47:42;12.40;99.90
8340;DHT22;4207;49.314;7.162;2023-05-10T03:50:10;12.40;99.90
8340;DHT22;4207;49.314;7.162;2023-05-10T03:52:40;12.40;99.90
8340;DHT22;4207;49.314;7.162;2023-05-10T03:55:09;12.60;99.90
8340;DHT22;4207;49.314;7.162;2023-05-10T03:57:37;12.40;99.90
8340;DHT22;4207;49.314;7.162;2023-05-10T04:00:07;12.30;99.90
8340;DHT22;4207;49.314;7.162;2023-05-10T04:02:41;12.20;99.90
8340;DHT22;4207;49.314;7.162;2023-05-10T04:05:16;12.10;99.90
8340;DHT22;4207;49.314;7.162;2023-05-10T04:07:45;12.00;99.90
8340;DHT22;4207;49.314;7.162;2023-05-10T04:10:14;12.00;99.90
8340;DHT22;4207;49.314;7.162;2023-05-10T04:12:43;12.00;99.90
8340;DHT22;4207;49.314;7.162;2023-05-10T04:15:11;12.00;99.90
8340;DHT22;4207;49.314;7.162;2023-05-10T04:17:39;12.00;99.90
8340;DHT22;4207;49.314;7.162;2023-05-10T04:20:08;11.90;99.90
8340;DHT22;4207;49.314;7.162;2023-05-10T04:22:36;11.90;99.90
8340;DHT22;4207;49.314;7.162;2023-05-10T04:25:07;11.90;99.90
8340;DHT22;4207;49.314;7.162;2023-05-10T04:27:35;11.90;99.90
8340;DHT22;4207;49.314;7.162;2023-05-10T04:30:05;11.90;99.90
8340;DHT22;4207;49.314;7.162;2023-05-10T04:32:34;12.00;99.90
8340;DHT22;4207;49.314;7.162;2023-05-10T04:35:03;12.10;99.90
8340;DHT22;4207;49.314;7.162;2023-05-10T04:37:33;12.20;99.90
8340;DHT22;4207;49.314;7.162;2023-05-10T04:40:01;12.20;99.90
8340;DHT22;4207;49.314;7.162;2023-05-10T04:42:31;12.20;99.90
8340;DHT22;4207;49.314;7.162;2023-05-10T04:44:59;12.30;99.90
8340;DHT22;4207;49.314;7.162;2023-05-10T04:47:27;12.40;99.90
8340;DHT22;4207;49.314;7.162;2023-05-10T04:49:55;12.50;99.90
8340;DHT22;4207;49.314;7.162;2023-05-10T04:52:23;12.50;99.90
8340;DHT22;4207;49.314;7.162;2023-05-10T04:54:51;12.60;99.90
8340;DHT22;4207;49.314;7.162;2023-05-10T04:57:19;12.60;99.90
8340;DHT22;4207;49.314;7.162;2023-05-10T04:59:49;12.60;99.90
8340;DHT22;4207;49.314;7.162;2023-05-10T05:02:17;12.70;99.90
8340;DHT22;4207;49.314;7.162;2023-05-10T05:04:45;12.80;99.90
8340;DHT22;4207;49.314;7.162;2023-05-10T05:07:13;13.10;99.90
8340;DHT22;4207;49.314;7.162;2023-05-10T05:09:41;13.20;99.90
8340;DHT22;4207;49.314;7.162;2023-05-10T05:12:10;13.30;99.90
8340;DHT22;4207;49.314;7.162;2023-05-10T05:14:40;13.40;99.90
8340;DHT22;4207;49.314;7.162;2023-05-10T05:17:10;13.40;99.90
8340;DHT22;4207;49.314;7.162;2023-05-10T05:19:38;13.40;99.90
8340;DHT22;4207;49.314;7.162;2023-05-10T05:22:07;13.30;99.90
8340;DHT22;4207;49.314;7.162;2023-05-10T05:24:35;13.30;99.90
8340;DHT22;4207;49.314;7.162;2023-05-10T05:27:05;13.30;99.90
8340;DHT22;4207;49.314;7.162;2023-05-10T05:29:33;13.20;99.90
8340;DHT22;4207;49.314;7.162;2023-05-10T05:32:01;13.30;99.90
8340;DHT22;4207;49.314;7.162;2023-05-10T05:34:31;13.30;99.90
8340;DHT22;4207;49.314;7.162;2023-05-10T05:37:03;13.30;99.90
8340;DHT22;4207;49.314;7.162;2023-05-10T05:39:30;13.30;99.90
8340;DHT22;4207;49.314;7.162;2023-05-10T05:41:58;13.30;99.90
8340;DHT22;4207;49.314;7.162;2023-05-10T05:44:27;13.20;99.90
8340;DHT22;4207;49.314;7.162;2023-05-10T05:46:55;13.20;99.90
8340;DHT22;4207;49.314;7.162;2023-05-10T05:49:23;13.20;99.90
8340;DHT22;4207;49.314;7.162;2023-05-10T05:51:53;13.10;99.90
8340;DHT22;4207;49.314;7.162;2023-05-10T05:54:21;13.00;99.90
8340;DHT22;4207;49.314;7.162;2023-05-10T05:56:49;13.00;99.90
8340;DHT22;4207;49.314;7.162;2023-05-10T05:59:17;13.00;99.90
8340;DHT22;4207;49.314;7.162;2023-05-10T06:01:45;13.00;99.90
8340;DHT22;4207;49.314;7.162;2023-05-10T06:04:13;13.00;99.90
8340;DHT22;4207;49.314;7.162;2023-05-10T06:06:42;13.10;99.90
8340;DHT22;4207;49.314;7.162;2023-05-10T06:09:11;13.20;99.90
8340;DHT22;4207;49.314;7.162;2023-05-10T06:11:39;13.30;99.90
8340;DHT22;4207;49.314;7.162;2023-05-10T06:14:07;13.40;99.90
8340;DHT22;4207;49.314;7.162;2023-05-10T06:16:35;13.40;99.90
8340;DHT22;4207;49.314;7.162;2023-05-10T06:19:04;13.30;99.90
8340;DHT22;4207;49.314;7.162;2023-05-10T06:21:35;13.20;99.90
8340;DHT22;4207;49.314;7.162;2023-05-10T06:24:03;13.30;99.90
8340;DHT22;4207;49.314;7.162;2023-05-10T06:26:33;13.40;99.90
8340;DHT22;4207;49.314;7.162;2023-05-10T06:29:01;13.70;99.90
8340;DHT22;4207;49.314;7.162;2023-05-10T06:31:29;14.00;99.90
8340;DHT22;4207;49.314;7.162;2023-05-10T06:33:57;14.20;99.90
8340;DHT22;4207;49.314;7.162;2023-05-10T06:36:25;14.30;99.90
8340;DHT22;4207;49.314;7.162;2023-05-10T06:38:53;14.40;99.90
8340;DHT22;4207;49.314;7.162;2023-05-10T06:41:22;14.50;99.90
8340;DHT22;4207;49.314;7.162;2023-05-10T06:43:52;14.50;99.90
8340;DHT22;4207;49.314;7.162;2023-05-10T06:46:20;14.30;99.90
8340;DHT22;4207;49.314;7.162;2023-05-10T06:48:51;14.20;99.90
8340;DHT22;4207;49.314;7.162;2023-05-10T06:51:19;14.20;99.90
8340;DHT22;4207;49.314;7.162;2023-05-10T06:53:47;14.10;99.90
8340;DHT22;4207;49.314;7.162;2023-05-10T06:56:17;14.00;99.90
8340;DHT22;4207;49.314;7.162;2023-05-10T06:58:48;13.90;99.90
8340;DHT22;4207;49.314;7.162;2023-05-10T07:01:17;13.80;99.90
8340;DHT22;4207;49.314;7.162;2023-05-10T07:03:46;13.80;99.90
8340;DHT22;4207;49.314;7.162;2023-05-10T07:06:13;13.80;99.90
8340;DHT22;4207;49.314;7.162;2023-05-10T07:08:58;13.80;99.90
8340;DHT22;4207;49.314;7.162;2023-05-10T07:11:26;13.80;99.90
8340;DHT22;4207;49.314;7.162;2023-05-10T07:13:54;13.70;99.90
8340;DHT22;4207;49.314;7.162;2023-05-10T07:16:24;13.60;99.90
8340;DHT22;4207;49.314;7.162;2023-05-10T07:18:52;13.60;99.90
8340;DHT22;4207;49.314;7.162;2023-05-10T07:21:20;13.70;99.90
8340;DHT22;4207;49.314;7.162;2023-05-10T07:23:50;13.80;99.90
8340;DHT22;4207;49.314;7.162;2023-05-10T07:26:19;13.80;99.90
8340;DHT22;4207;49.314;7.162;2023-05-10T07:28:47;13.80;99.90
8340;DHT22;4207;49.314;7.162;2023-05-10T07:31:15;13.80;99.90
8340;DHT22;4207;49.314;7.162;2023-05-10T07:33:45;13.80;99.90
8340;DHT22;4207;49.314;7.162;2023-05-10T07:36:13;13.70;99.90
8340;DHT22;4207;49.314;7.162;2023-05-10T07:38:41;13.70;99.90
8340;DHT22;4207;49.314;7.162;2023-05-10T07:41:11;13.70;99.90
8340;DHT22;4207;49.314;7.162;2023-05-10T07:43:39;13.80;99.90
8340;DHT22;4207;49.314;7.162;2023-05-10T07:46:07;13.90;99.90
8340;DHT22;4207;49.314;7.162;2023-05-10T07:48:36;14.00;99.90
8340;DHT22;4207;49.314;7.162;2023-05-10T07:51:06;14.00;99.90
8340;DHT22;4207;49.314;7.162;2023-05-10T07:53:39;14.10;99.90
8340;DHT22;4207;49.314;7.162;2023-05-10T07:56:24;14.10;99.90
8340;DHT22;4207;49.314;7.162;2023-05-10T07:58:54;14.30;99.90
8340;DHT22;4207;49.314;7.162;2023-05-10T08:01:22;14.40;99.90
8340;DHT22;4207;49.314;7.162;2023-05-10T08:03:53;14.50;99.90
8340;DHT22;4207;49.314;7.162;2023-05-10T08:06:22;14.60;99.90
8340;DHT22;4207;49.314;7.162;2023-05-10T08:08:53;14.70;99.90
8340;DHT22;4207;49.314;7.162;2023-05-10T08:11:22;14.70;99.90
8340;DHT22;4207;49.314;7.162;2023-05-10T08:13:51;14.70;99.90
8340;DHT22;4207;49.314;7.162;2023-05-10T08:16:19;14.70;99.90
8340;DHT22;4207;49.314;7.162;2023-05-10T08:18:48;14.70;99.90
8340;DHT22;4207;49.314;7.162;2023-05-10T08:21:17;14.60;99.90
8340;DHT22;4207;49.314;7.162;2023-05-10T08:23:46;14.60;99.90
8340;DHT22;4207;49.314;7.162;2023-05-10T08:26:15;14.50;99.90
8340;DHT22;4207;49.314;7.162;2023-05-10T08:28:44;14.40;99.90
8340;DHT22;4207;49.314;7.162;2023-05-10T08:31:13;14.30;99.90
8340;DHT22;4207;49.314;7.162;2023-05-10T08:33:41;14.20;99.90
8340;DHT22;4207;49.314;7.162;2023-05-10T08:36:10;14.20;99.90
8340;DHT22;4207;49.314;7.162;2023-05-10T08:38:41;14.30;99.90
8340;DHT22;4207;49.314;7.162;2023-05-10T08:41:11;14.20;99.90
8340;DHT22;4207;49.314;7.162;2023-05-10T08:43:39;14.30;99.90
8340;DHT22;4207;49.314;7.162;2023-05-10T08:46:16;14.40;99.90
8340;DHT22;4207;49.314;7.162;2023-05-10T08:48:49;14.60;99.90
8340;DHT22;4207;49.314;7.162;2023-05-10T08:51:19;14.60;99.90
8340;DHT22;4207;49.314;7.162;2023-05-10T08:53:50;14.80;99.90
8340;DHT22;4207;49.314;7.162;2023-05-10T08:56:21;15.00;99.90
8340;DHT22;4207;49.314;7.162;2023-05-10T08:58:53;15.30;99.90
8340;DHT22;4207;49.314;7.162;2023-05-10T09:01:22;15.50;99.90
8340;DHT22;4207;49.314;7.162;2023-05-10T09:03:50;15.80;99.90
8340;DHT22;4207;49.314;7.162;2023-05-10T09:06:18;15.80;99.90
8340;DHT22;4207;49.314;7.162;2023-05-10T09:08:47;15.90;99.90
8340;DHT22;4207;49.314;7.162;2023-05-10T09:11:15;16.00;99.90
8340;DHT22;4207;49.314;7.162;2023-05-10T09:13:45;16.10;99.90
8340;DHT22;4207;49.314;7.162;2023-05-10T09:16:13;16.10;99.90
8340;DHT22;4207;49.314;7.162;2023-05-10T09:18:50;15.90;99.90
8340;DHT22;4207;49.314;7.162;2023-05-10T09:21:19;15.80;99.90
8340;DHT22;4207;49.314;7.162;2023-05-10T09:23:47;15.60;99.90
8340;DHT22;4207;49.314;7.162;2023-05-10T09:26:17;15.80;99.90
8340;DHT22;4207;49.314;7.162;2023-05-10T09:28:55;15.90;99.90
8340;DHT22;4207;49.314;7.162;2023-05-10T09:31:23;15.90;99.90
8340;DHT22;4207;49.314;7.162;2023-05-10T09:33:53;15.80;99.90
8340;DHT22;4207;49.314;7.162;2023-05-10T09:36:21;15.70;99.90
8340;DHT22;4207;49.314;7.162;2023-05-10T09:38:51;15.80;99.90
8340;DHT22;4207;49.314;7.162;2023-05-10T09:41:21;15.70;99.90
8340;DHT22;4207;49.314;7.162;2023-05-10T09:43:50;15.60;99.90
8340;DHT22;4207;49.314;7.162;2023-05-10T09:46:24;15.40;99.90
8340;DHT22;4207;49.314;7.162;2023-05-10T09:48:52;15.50;99.90
8340;DHT22;4207;49.314;7.162;2023-05-10T09:51:20;15.50;99.90
8340;DHT22;4207;49.314;7.162;2023-05-10T09:53:50;15.70;99.90
8340;DHT22;4207;49.314;7.162;2023-05-10T09:56:36;16.00;99.90
8340;DHT22;4207;49.314;7.162;2023-05-10T09:59:09;15.90;99.90
8340;DHT22;4207;49.314;7.162;2023-05-10T10:01:38;15.70;99.90
8340;DHT22;4207;49.314;7.162;2023-05-10T10:04:09;15.60;99.90
8340;DHT22;4207;49.314;7.162;2023-05-10T10:06:37;15.50;99.90
8340;DHT22;4207;49.314;7.162;2023-05-10T10:09:06;15.50;99.90
8340;DHT22;4207;49.314;7.162;2023-05-10T10:11:36;15.70;99.90
8340;DHT22;4207;49.314;7.162;2023-05-10T10:14:06;16.00;99.90
8340;DHT22;4207;49.314;7.162;2023-05-10T10:16:34;16.20;99.90
8340;DHT22;4207;49.314;7.162;2023-05-10T10:19:12;16.10;99.90
8340;DHT22;4207;49.314;7.162;2023-05-10T10:21:43;16.00;99.90
8340;DHT22;4207;49.314;7.162;2023-05-10T10:24:11;15.90;99.90
8340;DHT22;4207;49.314;7.162;2023-05-10T10:26:40;15.80;99.90
8340;DHT22;4207;49.314;7.162;2023-05-10T10:29:19;15.70;99.90
8340;DHT22;4207;49.314;7.162;2023-05-10T10:31:55;15.80;99.90
8340;DHT22;4207;49.314;7.162;2023-05-10T10:34:28;15.90;99.90
8340;DHT22;4207;49.314;7.162;2023-05-10T10:36:58;15.90;99.90
8340;DHT22;4207;49.314;7.162;2023-05-10T10:39:31;16.00;99.90
8340;DHT22;4207;49.314;7.162;2023-05-10T10:41:59;16.20;99.90
8340;DHT22;4207;49.314;7.162;2023-05-10T10:44:38;16.50;99.90
8340;DHT22;4207;49.314;7.162;2023-05-10T10:47:21;16.80;99.90
8340;DHT22;4207;49.314;7.162;2023-05-10T10:50:07;17.10;99.90
8340;DHT22;4207;49.314;7.162;2023-05-10T10:52:37;17.10;99.90
8340;DHT22;4207;49.314;7.162;2023-05-10T10:55:06;17.10;99.90
8340;DHT22;4207;49.314;7.162;2023-05-10T10:57:48;17.20;99.90
8340;DHT22;4207;49.314;7.162;2023-05-10T11:02:59;17.20;99.90
8340;DHT22;4207;49.314;7.162;2023-05-10T11:05:36;17.30;99.90
8340;DHT22;4207;49.314;7.162;2023-05-10T11:08:14;17.10;99.90
8340;DHT22;4207;49.314;7.162;2023-05-10T11:10:51;17.10;99.90
8340;DHT22;4207;49.314;7.162;2023-05-10T11:13:28;17.10;99.90
8340;DHT22;4207;49.314;7.162;2023-05-10T11:15:57;17.20;99.90
8340;DHT22;4207;49.314;7.162;2023-05-10T11:18:27;17.10;99.90
8340;DHT22;4207;49.314;7.162;2023-05-10T11:20:59;17.20;99.90
8340;DHT22;4207;49.314;7.162;2023-05-10T11:23:30;17.20;99.90
8340;DHT22;4207;49.314;7.162;2023-05-10T11:25:59;17.40;99.90
8340;DHT22;4207;49.314;7.162;2023-05-10T11:28:27;17.50;99.90
8340;DHT22;4207;49.314;7.162;2023-05-10T11:30:56;17.30;99.90
8340;DHT22;4207;49.314;7.162;2023-05-10T11:33:24;17.10;99.90
8340;DHT22;4207;49.314;7.162;2023-05-10T11:35:52;16.80;99.90
8340;DHT22;4207;49.314;7.162;2023-05-10T11:38:21;16.50;99.90
8340;DHT22;4207;49.314;7.162;2023-05-10T11:40:51;16.30;99.90
8340;DHT22;4207;49.314;7.162;2023-05-10T11:43:23;16.40;99.90
8340;DHT22;4207;49.314;7.162;2023-05-10T11:45:54;16.60;99.90
8340;DHT22;4207;49.314;7.162;2023-05-10T11:48:23;17.00;99.90
8340;DHT22;4207;49.314;7.162;2023-05-10T11:50:51;17.20;99.90
8340;DHT22;4207;49.314;7.162;2023-05-10T11:53:20;17.50;99.90
8340;DHT22;4207;49.314;7.162;2023-05-10T11:55:51;17.60;99.90
8340;DHT22;4207;49.314;7.162;2023-05-10T11:58:19;17.70;99.90
8340;DHT22;4207;49.314;7.162;2023-05-10T12:00:49;17.90;99.90
8340;DHT22;4207;49.314;7.162;2023-05-10T12:03:17;18.00;99.90
8340;DHT22;4207;49.314;7.162;2023-05-10T12:05:46;18.00;99.90
8340;DHT22;4207;49.314;7.162;2023-05-10T12:08:15;18.00;99.90
8340;DHT22;4207;49.314;7.162;2023-05-10T12:10:43;17.90;99.90
8340;DHT22;4207;49.314;7.162;2023-05-10T12:13:13;17.90;99.90
8340;DHT22;4207;49.314;7.162;2023-05-10T12:15:42;17.90;99.90
8340;DHT22;4207;49.314;7.162;2023-05-10T12:18:11;17.80;98.70
8340;DHT22;4207;49.314;7.162;2023-05-10T12:20:40;17.80;99.60
8340;DHT22;4207;49.314;7.162;2023-05-10T12:23:09;17.80;98.30
8340;DHT22;4207;49.314;7.162;2023-05-10T12:25:38;17.80;98.30
8340;DHT22;4207;49.314;7.162;2023-05-10T12:28:08;18.00;98.00
8340;DHT22;4207;49.314;7.162;2023-05-10T12:30:38;18.10;96.60
8340;DHT22;4207;49.314;7.162;2023-05-10T12:33:11;18.10;97.00
8340;DHT22;4207;49.314;7.162;2023-05-10T12:35:47;18.20;98.30
8340;DHT22;4207;49.314;7.162;2023-05-10T12:38:29;18.30;98.90
8340;DHT22;4207;49.314;7.162;2023-05-10T12:40:58;18.20;97.30
8340;DHT22;4207;49.314;7.162;2023-05-10T12:43:29;18.20;95.70
8340;DHT22;4207;49.314;7.162;2023-05-10T12:46:04;18.20;96.20
8340;DHT22;4207;49.314;7.162;2023-05-10T12:48:33;18.30;94.70
8340;DHT22;4207;49.314;7.162;2023-05-10T12:51:02;18.10;92.90
8340;DHT22;4207;49.314;7.162;2023-05-10T12:53:32;17.80;94.20
8340;DHT22;4207;49.314;7.162;2023-05-10T12:56:00;17.40;94.10
8340;DHT22;4207;49.314;7.162;2023-05-10T12:58:28;17.30;95.40
8340;DHT22;4207;49.314;7.162;2023-05-10T13:01:04;17.30;97.50
8340;DHT22;4207;49.314;7.162;2023-05-10T13:03:32;17.30;96.60
8340;DHT22;4207;49.314;7.162;2023-05-10T13:06:00;17.40;96.40
8340;DHT22;4207;49.314;7.162;2023-05-10T13:08:28;17.40;94.90
8340;DHT22;4207;49.314;7.162;2023-05-10T13:11:00;17.30;95.30
8340;DHT22;4207;49.314;7.162;2023-05-10T13:13:28;17.40;95.20
8340;DHT22;4207;49.314;7.162;2023-05-10T13:15:56;17.30;96.30
8340;DHT22;4207;49.314;7.162;2023-05-10T13:18:26;17.20;96.90
8340;DHT22;4207;49.314;7.162;2023-05-10T13:20:54;17.10;96.80
8340;DHT22;4207;49.314;7.162;2023-05-10T13:23:22;17.10;96.80
8340;DHT22;4207;49.314;7.162;2023-05-10T13:25:50;17.20;97.50
8340;DHT22;4207;49.314;7.162;2023-05-10T13:28:18;17.30;97.40
8340;DHT22;4207;49.314;7.162;2023-05-10T13:30:47;17.50;96.70
8340;DHT22;4207;49.314;7.162;2023-05-10T13:33:15;17.80;96.20
8340;DHT22;4207;49.314;7.162;2023-05-10T13:35:44;18.20;96.60
8340;DHT22;4207;49.314;7.162;2023-05-10T13:38:12;18.50;94.90
8340;DHT22;4207;49.314;7.162;2023-05-10T13:40:40;18.50;93.70
8340;DHT22;4207;49.314;7.162;2023-05-10T13:43:08;18.50;94.30
8340;DHT22;4207;49.314;7.162;2023-05-10T13:45:37;18.40;94.40
8340;DHT22;4207;49.314;7.162;2023-05-10T13:48:05;18.40;94.80
8340;DHT22;4207;49.314;7.162;2023-05-10T13:50:33;18.40;95.80
8340;DHT22;4207;49.314;7.162;2023-05-10T13:53:03;18.70;95.40
8340;DHT22;4207;49.314;7.162;2023-05-10T13:55:34;18.90;94.20
8340;DHT22;4207;49.314;7.162;2023-05-10T13:58:02;18.90;94.70
8340;DHT22;4207;49.314;7.162;2023-05-10T14:00:31;19.00;94.10
8340;DHT22;4207;49.314;7.162;2023-05-10T14:02:59;18.90;94.80
8340;DHT22;4207;49.314;7.162;2023-05-10T14:05:28;18.80;93.90
8340;DHT22;4207;49.314;7.162;2023-05-10T14:07:56;18.90;95.00
8340;DHT22;4207;49.314;7.162;2023-05-10T14:10:26;18.70;94.00
8340;DHT22;4207;49.314;7.162;2023-05-10T14:12:54;18.50;94.90
8340;DHT22;4207;49.314;7.162;2023-05-10T14:15:22;18.50;95.30
8340;DHT22;4207;49.314;7.162;2023-05-10T14:17:52;18.70;95.60
8340;DHT22;4207;49.314;7.162;2023-05-10T14:20:20;18.80;94.50
8340;DHT22;4207;49.314;7.162;2023-05-10T14:22:48;18.90;94.20
8340;DHT22;4207;49.314;7.162;2023-05-10T14:25:17;18.90;94.00
8340;DHT22;4207;49.314;7.162;2023-05-10T14:27:51;18.70;94.30
8340;DHT22;4207;49.314;7.162;2023-05-10T14:30:21;18.50;94.90
8340;DHT22;4207;49.314;7.162;2023-05-10T14:32:49;18.50;94.10
8340;DHT22;4207;49.314;7.162;2023-05-10T14:35:17;18.30;94.00
8340;DHT22;4207;49.314;7.162;2023-05-10T14:37:46;18.10;92.50
8340;DHT22;4207;49.314;7.162;2023-05-10T14:40:14;18.00;93.10
8340;DHT22;4207;49.314;7.162;2023-05-10T14:42:42;18.00;94.60
8340;DHT22;4207;49.314;7.162;2023-05-10T14:45:12;18.00;94.40
8340;DHT22;4207;49.314;7.162;2023-05-10T14:47:40;18.00;94.30
8340;DHT22;4207;49.314;7.162;2023-05-10T14:50:10;18.10;94.90
8340;DHT22;4207;49.314;7.162;2023-05-10T14:52:57;18.30;95.40
8340;DHT22;4207;49.314;7.162;2023-05-10T14:55:25;18.40;95.60
8340;DHT22;4207;49.314;7.162;2023-05-10T14:57:55;18.50;95.40
8340;DHT22;4207;49.314;7.162;2023-05-10T15:00:27;18.80;95.10
8340;DHT22;4207;49.314;7.162;2023-05-10T15:02:55;18.90;94.10
8340;DHT22;4207;49.314;7.162;2023-05-10T15:05:24;18.80;93.50
8340;DHT22;4207;49.314;7.162;2023-05-10T15:07:53;18.70;93.50
8340;DHT22;4207;49.314;7.162;2023-05-10T15:10:21;18.50;93.20
8340;DHT22;4207;49.314;7.162;2023-05-10T15:12:49;18.30;94.10
8340;DHT22;4207;49.314;7.162;2023-05-10T15:15:18;18.10;94.10
8340;DHT22;4207;49.314;7.162;2023-05-10T15:17:47;17.90;94.90
8340;DHT22;4207;49.314;7.162;2023-05-10T15:20:15;17.90;95.10
8340;DHT22;4207;49.314;7.162;2023-05-10T15:22:43;17.70;94.70
8340;DHT22;4207;49.314;7.162;2023-05-10T15:25:12;17.50;95.20
8340;DHT22;4207;49.314;7.162;2023-05-10T15:27:41;17.50;95.60
8340;DHT22;4207;49.314;7.162;2023-05-10T15:30:11;17.30;96.10
8340;DHT22;4207;49.314;7.162;2023-05-10T15:32:39;17.20;97.30
8340;DHT22;4207;49.314;7.162;2023-05-10T15:35:09;17.00;97.50
8340;DHT22;4207;49.314;7.162;2023-05-10T15:37:37;16.70;97.90
8340;DHT22;4207;49.314;7.162;2023-05-10T15:40:06;16.50;98.10
8340;DHT22;4207;49.314;7.162;2023-05-10T15:42:34;16.20;99.00
8340;DHT22;4207;49.314;7.162;2023-05-10T15:45:03;16.10;99.60
8340;DHT22;4207;49.314;7.162;2023-05-10T15:47:32;16.00;99.90
8340;DHT22;4207;49.314;7.162;2023-05-10T15:50:00;15.80;99.90
8340;DHT22;4207;49.314;7.162;2023-05-10T15:52:29;15.70;99.90
8340;DHT22;4207;49.314;7.162;2023-05-10T15:54:57;15.50;99.90
8340;DHT22;4207;49.314;7.162;2023-05-10T15:57:27;15.40;99.90
8340;DHT22;4207;49.314;7.162;2023-05-10T15:59:54;15.40;99.90
8340;DHT22;4207;49.314;7.162;2023-05-10T16:02:23;15.40;99.90
8340;DHT22;4207;49.314;7.162;2023-05-10T16:04:52;15.40;99.90
8340;DHT22;4207;49.314;7.162;2023-05-10T16:07:20;15.50;99.90
8340;DHT22;4207;49.314;7.162;2023-05-10T16:09:49;15.60;99.90
8340;DHT22;4207;49.314;7.162;2023-05-10T16:12:17;15.70;99.90
8340;DHT22;4207;49.314;7.162;2023-05-10T16:14:46;15.80;99.90
8340;DHT22;4207;49.314;7.162;2023-05-10T16:17:14;15.90;99.90
8340;DHT22;4207;49.314;7.162;2023-05-10T16:19:42;16.00;99.90
8340;DHT22;4207;49.314;7.162;2023-05-10T16:22:10;16.20;99.90